KDEC

Decatur Airport

Decatur, Illinois, USA
METAR KDEC 241254Z 16007KT 10SM CLR 22/14 A3020 RMK AO2 SLP223 T02220139
Observed Flight Rules
May-24 @ 12:54 UTC (55 minutes ago) Visual Flight Rules
Wind Visibility Clouds
160° at 7 knots 10 miles
  • Clear skies
Temperatures Readings
Current 22°C / 72°F
Dewpoint 14°C / 57°F
Humidity 61%
Altimeter 30.2" Hg
Pressure 1022.3 hPa
Elevation 207
METAR KDEC 241254Z 16007KT 10SM CLR 22/14 A3020 RMK AO2 SLP223 T02220139
Observed Flight Rules
May-24 @ 12:54 UTC
(55 minutes ago)
VFR
Wind Visibility
160° at 7 knots 10 miles
Clouds
  • Clear skies
Temperature Dewpoint
22°C / 72°F 14°C / 57°F
Humidity Altimeter Pressure
61% 30.2" Hg 1022.3 hPa